createdAt,value
2016-07-21T12:42:11.632Z,995.01
2016-07-21T12:43:11.636Z,995.02
2016-07-21T12:44:11.850Z,995.03
2016-07-21T12:45:11.858Z,995.04
2016-07-21T12:46:11.668Z,995.01
2016-07-21T12:47:11.680Z,994.98
2016-07-21T12:48:11.693Z,994.97
2016-07-21T12:49:11.852Z,994.92
2016-07-21T12:50:11.772Z,994.92
2016-07-21T12:51:11.796Z,994.9
2016-07-21T12:52:11.828Z,994.88
2016-07-21T12:53:11.996Z,994.86
2016-07-21T12:54:12.227Z,994.87
2016-07-21T12:55:11.817Z,994.86
2016-07-21T12:56:12.034Z,994.89
2016-07-21T12:57:12.033Z,994.84
2016-07-21T12:58:11.846Z,994.88
2016-07-21T12:59:11.947Z,994.88
2016-07-21T13:00:11.856Z,994.84
2016-07-21T13:01:11.897Z,994.82
2016-07-21T13:02:11.883Z,994.83
2016-07-21T13:03:11.883Z,994.81
2016-07-21T13:04:12.303Z,994.78
2016-07-21T13:05:11.972Z,994.8
2016-07-21T13:06:12.148Z,994.85
2016-07-21T13:07:11.979Z,994.83
2016-07-21T13:08:11.974Z,994.83
2016-07-21T13:09:11.967Z,994.85
2016-07-21T13:10:12.002Z,994.88
2016-07-21T13:11:12.015Z,994.86
2016-07-21T13:12:12.044Z,994.92
2016-07-21T13:13:12.060Z,994.95
2016-07-21T13:14:12.018Z,994.91
2016-07-21T13:15:12.093Z,994.97
2016-07-21T13:17:13.503Z,994.96
2016-07-21T13:19:12.084Z,994.96
2016-07-21T13:20:12.702Z,994.96
2016-07-21T13:22:12.737Z,994.89
2016-07-21T13:23:15.160Z,994.86
2016-07-21T13:25:15.399Z,994.82
2016-07-21T13:27:12.195Z,994.81
2016-07-21T13:28:12.231Z,994.82
2016-07-21T13:29:12.448Z,994.83
2016-07-21T13:32:12.462Z,994.76
2016-07-21T13:33:12.444Z,994.76
2016-07-21T13:34:13.087Z,994.75
2016-07-21T13:35:14.302Z,994.76
2016-07-21T13:36:12.700Z,994.74
2016-07-21T13:38:12.708Z,994.76
2016-07-21T13:39:12.587Z,994.75
2016-07-21T13:40:12.360Z,994.77
2016-07-21T13:41:12.350Z,994.78
2016-07-21T13:42:12.970Z,994.79
2016-07-21T13:44:12.367Z,994.83
2016-07-21T13:45:12.602Z,994.86
2016-07-21T13:46:12.609Z,994.9
2016-07-21T13:48:12.655Z,994.93
2016-07-21T13:49:12.855Z,994.98
2016-07-21T13:50:12.704Z,995.01
2016-07-21T13:51:12.705Z,995.05
2016-07-21T13:53:12.502Z,995.01
2016-07-21T13:56:13.020Z,994.94
2016-07-21T13:57:12.799Z,994.92
2016-07-21T13:58:12.615Z,994.87
2016-07-21T13:59:12.620Z,994.89
2016-07-21T14:00:13.179Z,994.86
2016-07-21T14:02:12.808Z,994.86
2016-07-21T14:03:12.650Z,994.86
